Terminal Aerodrome Forecast
Issued by NWS

Home | Current Version | Previous Version | Text Only | Print | Product List | Glossary On
Versions: 1 2 3 4 5 6 7 8 9 10 11 12 13 14 15 16 17 18 19 20
000
FTUS42 KFFC 191739
TAFFTY
TAF
KFTY 191739Z 1918/2018 15004KT P6SM FEW030 BKN100
     FM192100 14005KT P6SM BKN030 BKN100
     FM200200 15004KT P6SM -RA OVC015
     FM200600 20006KT 6SM -RA BR OVC007
     FM201000 22006KT 4SM BR OVC004
     FM201500 21005KT 4SM BR SCT004 BKN015
     FM201700 21004KT P6SM BKN025=

USA.gov is the U.S. government's official web portal to all federal, state and local government web resources and services.